Enchantment of the Seas — C6FZ7 — position and weather

sailwx.info

Track history (hours):
 
Tides and Currents Weather Stations Pressure Air Temp Water Temp Dewpoint Dewpoint Depression Visibility Wind Speed Wind Dir Waves Ship Positions

Enchantment of the Seas (Bahamas)

Last reported at 2016-Dec-03 02:28 UTC. Time now 2016-Dec-03 19:39 UTC.
Position N 26°04' W 079°32'.

Type: Passenger vessel. MMSI: 311733000.

Date/timePositionNaut miles runAvg speedWind from/ knotsBaromVisibWave heightAir tempDewpointWater temp
2016-Dec-03 02:28N 26°04' W 079°32'8 8.7
2016-Dec-03 01:34N 26°01' W 079°39'9 8.7
2016-Dec-03 00:34N 25°56' W 079°48'9 8.9
2016-Dec-02 23:33N 25°51' W 079°56'9 8.7
2016-Dec-02 22:34N 25°46' W 080°04'6 6.1
2016-Dec-02 21:33N 25°47' W 080°10'0 0.0
2016-Dec-02 20:33N 25°47' W 080°10'0 0.0
2016-Dec-02 19:33N 25°47' W 080°10'0 0.0
2016-Dec-02 18:33N 25°47' W 080°10'0 0.0
2016-Dec-02 17:33N 25°47' W 080°10'0 0.0
2016-Dec-02 16:33N 25°47' W 080°10'0 0.0
2016-Dec-02 15:33N 25°47' W 080°10'0 0.0
2016-Dec-02 14:33N 25°47' W 080°10'0 0.0
2016-Dec-02 13:33N 25°47' W 080°10'0 0.0
2016-Dec-02 12:33N 25°47' W 080°10'0 0.4
2016-Dec-02 11:33N 25°47' W 080°11'7 6.9
2016-Dec-02 10:33N 25°47' W 080°03'1010.2
2016-Dec-02 09:33N 25°42' W 079°53'1212.4
2016-Dec-02 08:33N 25°30' W 079°50'5415.2
2016-Dec-02 05:00N 24°42' W 080°18'40 1.7 150 / 151015.0 26.024.628.0
2016-Dec-01 05:31N 25°18' W 079°59'713.2
2016-Dec-01 05:00N 25°24' W 079°54'819.4 130 / 201015.0 26.023.128.0
2016-Dec-01 04:33N 25°30' W 079°48'1515.3
2016-Dec-01 03:33N 25°42' W 079°37'131 5.8
2016-Nov-30 05:00N 25°06' W 077°18'34 1.7 100 / 181014.010.8 24.021.028.0
2016-Nov-29 09:00N 25°36' W 077°36'11812.5 110 / 221014.010.8 24.019.427.0
2016-Nov-28 23:33N 25°55' W 079°45'1515.2
2016-Nov-28 22:34N 25°49' W 080°00'9 9.3
2016-Nov-28 21:33N 25°47' W 080°10'0 0.2
2016-Nov-28 20:31N 25°47' W 080°11'0 0.0
2016-Nov-28 19:31N 25°47' W 080°11'0 0.0
2016-Nov-28 18:31N 25°47' W 080°11'0 0.0
2016-Nov-28 17:31N 25°47' W 080°11'0 0.0
2016-Nov-28 16:34N 25°47' W 080°11'0 0.0
2016-Nov-28 15:32N 25°47' W 080°11'0 0.0
2016-Nov-28 14:32N 25°47' W 080°11'0 0.0
2016-Nov-28 13:32N 25°47' W 080°11'0 0.0
2016-Nov-28 12:32N 25°47' W 080°11'0 0.5
2016-Nov-28 11:33N 25°47' W 080°10'10 9.7
2016-Nov-28 10:34N 25°48' W 079°60'1514.5
2016-Nov-28 09:33N 25°55' W 079°45'133 5.4
2016-Nov-27 09:00N 25°18' W 077°24'127 4.1 050 / 141017.010.8 23.019.928.0
2016-Nov-26 02:24N 26°03' W 079°36'810.0
2016-Nov-26 01:33N 25°57' W 079°43'9 9.3
2016-Nov-26 00:33N 25°53' W 079°52'1010.2
2016-Nov-25 23:33N 25°47' W 080°01'8 7.8
2016-Nov-25 22:33N 25°47' W 080°10'1 0.5
2016-Nov-25 21:33N 25°47' W 080°11'0 0.0
2016-Nov-25 20:33N 25°47' W 080°11'0 0.0
2016-Nov-25 19:33N 25°47' W 080°11'0 0.0
2016-Nov-25 18:33N 25°47' W 080°11'0 0.0
2016-Nov-25 17:33N 25°47' W 080°11'0 0.0
2016-Nov-25 16:33N 25°47' W 080°11'0 0.0
2016-Nov-25 15:33N 25°47' W 080°11'0 0.0
2016-Nov-25 14:33N 25°47' W 080°11'0 0.0
2016-Nov-25 13:33N 25°47' W 080°11'0 0.0
2016-Nov-25 12:33N 25°47' W 080°11'0 0.4
2016-Nov-25 11:34N 25°47' W 080°11'7 6.9
2016-Nov-25 10:34N 25°47' W 080°03'1211.8
2016-Nov-25 09:33N 25°41' W 079°52'1515.4
2016-Nov-25 08:34N 25°25' W 079°51'8415.1
2016-Nov-25 03:00N 24°24' W 080°54'52 2.9 090 / 221019.010.8 25.018.827.0
2016-Nov-24 09:00N 25°00' W 080°12'2112.6 100 / 231019.010.8 24.021.029.0
2016-Nov-24 07:19N 25°18' W 079°59'1418.2
2016-Nov-24 06:33N 25°28' W 079°50'1918.6
2016-Nov-24 05:33N 25°42' W 079°35'  
Track history (hours):
 
Tides and Currents Weather Stations Pressure Air Temp Water Temp Dewpoint Dewpoint Depression Visibility Wind Speed Wind Dir Waves Ship Positions

Enchantment of the Seas (Bahamas)

Last reported at 2016-Dec-03 02:28 UTC. Time now 2016-Dec-03 19:39 UTC.
Position N 26°04' W 079°32'.

Type: Passenger vessel. MMSI: 311733000.

Date/timePositionNaut miles runAvg speedWind from/ knotsBaromVisibWave heightAir tempDewpointWater temp
2016-Dec-03 02:28N 26°04' W 079°32'8 8.7
2016-Dec-03 01:34N 26°01' W 079°39'9 8.7
2016-Dec-03 00:34N 25°56' W 079°48'9 8.9
2016-Dec-02 23:33N 25°51' W 079°56'9 8.7
2016-Dec-02 22:34N 25°46' W 080°04'6 6.1
2016-Dec-02 21:33N 25°47' W 080°10'0 0.0
2016-Dec-02 20:33N 25°47' W 080°10'0 0.0
2016-Dec-02 19:33N 25°47' W 080°10'0 0.0
2016-Dec-02 18:33N 25°47' W 080°10'0 0.0
2016-Dec-02 17:33N 25°47' W 080°10'0 0.0
2016-Dec-02 16:33N 25°47' W 080°10'0 0.0
2016-Dec-02 15:33N 25°47' W 080°10'0 0.0
2016-Dec-02 14:33N 25°47' W 080°10'0 0.0
2016-Dec-02 13:33N 25°47' W 080°10'0 0.0
2016-Dec-02 12:33N 25°47' W 080°10'0 0.4
2016-Dec-02 11:33N 25°47' W 080°11'7 6.9
2016-Dec-02 10:33N 25°47' W 080°03'1010.2
2016-Dec-02 09:33N 25°42' W 079°53'1212.4
2016-Dec-02 08:33N 25°30' W 079°50'5415.2
2016-Dec-02 05:00N 24°42' W 080°18'40 1.7 150 / 151015.0 26.024.628.0
2016-Dec-01 05:31N 25°18' W 079°59'713.2
2016-Dec-01 05:00N 25°24' W 079°54'819.4 130 / 201015.0 26.023.128.0
2016-Dec-01 04:33N 25°30' W 079°48'1515.3
2016-Dec-01 03:33N 25°42' W 079°37'131 5.8
2016-Nov-30 05:00N 25°06' W 077°18'34 1.7 100 / 181014.010.8 24.021.028.0
2016-Nov-29 09:00N 25°36' W 077°36'11812.5 110 / 221014.010.8 24.019.427.0
2016-Nov-28 23:33N 25°55' W 079°45'1515.2
2016-Nov-28 22:34N 25°49' W 080°00'9 9.3
2016-Nov-28 21:33N 25°47' W 080°10'0 0.2
2016-Nov-28 20:31N 25°47' W 080°11'0 0.0
2016-Nov-28 19:31N 25°47' W 080°11'0 0.0
2016-Nov-28 18:31N 25°47' W 080°11'0 0.0
2016-Nov-28 17:31N 25°47' W 080°11'0 0.0
2016-Nov-28 16:34N 25°47' W 080°11'0 0.0
2016-Nov-28 15:32N 25°47' W 080°11'0 0.0
2016-Nov-28 14:32N 25°47' W 080°11'0 0.0
2016-Nov-28 13:32N 25°47' W 080°11'0 0.0
2016-Nov-28 12:32N 25°47' W 080°11'0 0.5
2016-Nov-28 11:33N 25°47' W 080°10'10 9.7
2016-Nov-28 10:34N 25°48' W 079°60'1514.5
2016-Nov-28 09:33N 25°55' W 079°45'133 5.4
2016-Nov-27 09:00N 25°18' W 077°24'127 4.1 050 / 141017.010.8 23.019.928.0
2016-Nov-26 02:24N 26°03' W 079°36'810.0
2016-Nov-26 01:33N 25°57' W 079°43'9 9.3
2016-Nov-26 00:33N 25°53' W 079°52'1010.2
2016-Nov-25 23:33N 25°47' W 080°01'8 7.8
2016-Nov-25 22:33N 25°47' W 080°10'1 0.5
2016-Nov-25 21:33N 25°47' W 080°11'0 0.0
2016-Nov-25 20:33N 25°47' W 080°11'0 0.0
2016-Nov-25 19:33N 25°47' W 080°11'0 0.0
2016-Nov-25 18:33N 25°47' W 080°11'0 0.0
2016-Nov-25 17:33N 25°47' W 080°11'0 0.0
2016-Nov-25 16:33N 25°47' W 080°11'0 0.0
2016-Nov-25 15:33N 25°47' W 080°11'0 0.0
2016-Nov-25 14:33N 25°47' W 080°11'0 0.0
2016-Nov-25 13:33N 25°47' W 080°11'0 0.0
2016-Nov-25 12:33N 25°47' W 080°11'0 0.4
2016-Nov-25 11:34N 25°47' W 080°11'7 6.9
2016-Nov-25 10:34N 25°47' W 080°03'1211.8
2016-Nov-25 09:33N 25°41' W 079°52'1515.4
2016-Nov-25 08:34N 25°25' W 079°51'8415.1
2016-Nov-25 03:00N 24°24' W 080°54'52 2.9 090 / 221019.010.8 25.018.827.0
2016-Nov-24 09:00N 25°00' W 080°12'2112.6 100 / 231019.010.8 24.021.029.0
2016-Nov-24 07:19N 25°18' W 079°59'1418.2
2016-Nov-24 06:33N 25°28' W 079°50'1918.6
2016-Nov-24 05:33N 25°42' W 079°35'  

Dump ship's entire track history